Time;durP1;ratioP1;P1;durP2;ratioP2;P2;SDS_P1;SDS_P2;PMS_P1;PMS_P2;Temp;Humidity;BMP_temperature;BMP_pressure;BME280_temperature;BME280_humidity;BME280_pressure;Samples;Min_cycle;Max_cycle;Signal;HPM_P1;HPM_P2
2021/12/17 00:00:07;;;;;;;;;;;;;;;4.46;70.43;99619.31;4992486;28;20383;-70
2021/12/17 00:05:19;;;;;;;;;;;;;;;4.48;70.14;99616.47;5008249;28;19923;-74
2021/12/17 00:07:44;;;;;;;;;;;;;;;4.48;70.50;99619.09;5008492;28;19976;-72
2021/12/17 00:10:11;;;;;;;;;;;;;;;4.47;70.76;99607.69;4993761;28;19968;-71
2021/12/17 00:12:37;;;;;;;;;;;;;;;4.46;70.40;99607.91;4997795;28;20385;-71
2021/12/17 00:15:03;;;;;;;;;;;;;;;4.45;70.00;99612.38;4992536;28;19918;-71
2021/12/17 00:17:33;;;;;;;;;;;;;;;4.45;70.44;99609.75;4996800;28;19925;-70
2021/12/17 00:49:50;;;;;;;;;;;;;;;4.58;70.40;99613.28;5008932;28;20335;-73
2021/12/17 00:52:15;;;;;;;;;;;;;;;4.57;70.40;99615.09;5006629;28;19914;-72
2021/12/17 00:54:41;;;;;;;;;;;;;;;4.54;70.59;99618.22;4990748;28;19921;-73
2021/12/17 00:57:07;;;;;;;;;;;;;;;4.55;70.10;99606.56;5003582;28;19914;-72
2021/12/17 00:59:32;;;;;;;;;;;;;;;4.56;70.26;99604.75;5011487;28;19947;-72
2021/12/17 01:01:59;;;;;;;;;;;;;;;4.53;70.49;99605.16;4999854;28;19924;-73
2021/12/17 01:04:24;;;;;;;;;;;;;;;4.54;69.87;99604.16;4989332;28;20274;-71
2021/12/17 01:06:50;;;;;;;;;;;;;;;4.54;70.67;99604.16;4994267;28;19994;-71
2021/12/17 01:09:17;;;;;;;;;;;;;;;4.53;69.46;99591.94;4993016;28;20278;-70
2021/12/17 01:11:43;;;;;;;;;;;;;;;4.52;70.17;99600.91;4991895;28;19917;-72
2021/12/17 01:14:08;;;;;;;;;;;;;;;4.53;70.29;99592.75;4977024;28;20009;-72
2021/12/17 01:16:34;;;;;;;;;;;;;;;4.53;69.90;99599.88;5002479;28;20277;-73
2021/12/17 01:19:14;;;;;;;;;;;;;;;4.53;69.81;99602.53;4996246;28;19964;-72
2021/12/17 01:35:28;;;;;;;;;;;;;;;4.56;69.92;99572.97;5002619;28;19955;-71
2021/12/17 01:42:59;;;;;;;;;;;;;;;4.57;70.06;99570.06;5003220;28;19948;-70
2021/12/17 01:45:29;;;;;;;;;;;;;;;4.57;69.80;99564.78;4982506;28;19961;-70
2021/12/17 01:47:55;;;;;;;;;;;;;;;4.59;69.70;99573.31;5004389;28;20328;-71
2021/12/17 01:56:05;;;;;;;;;;;;;;;4.59;69.20;99568.03;4994858;28;20404;-70
2021/12/17 02:01:15;;;;;;;;;;;;;;;4.62;69.72;99556.16;4999556;28;19924;-70
2021/12/17 02:03:40;;;;;;;;;;;;;;;4.63;69.45;99561.22;5012847;28;19918;-70
2021/12/17 02:06:06;;;;;;;;;;;;;;;4.64;69.32;99559.41;5013806;28;19917;-70
2021/12/17 02:08:32;;;;;;;;;;;;;;;4.63;69.27;99552.50;5001107;28;19922;-70
2021/12/17 02:32:48;;;;;;;;;;;;;;;4.64;69.90;99554.91;5013662;28;19913;-70
2021/12/17 02:35:39;;;;;;;;;;;;;;;4.64;69.51;99565.50;5007155;28;19918;-71
2021/12/17 02:38:00;;;;;;;;;;;;;;;4.63;69.10;99547.97;4998666;28;19917;-71
2021/12/17 02:45:48;;;;;;;;;;;;;;;4.67;69.31;99542.25;4994474;28;19976;-72
2021/12/17 02:48:23;;;;;;;;;;;;;;;4.68;69.69;99541.22;5001326;28;19913;-71
2021/12/17 02:50:56;;;;;;;;;;;;;;;4.67;68.95;99537.75;5006617;28;20278;-71
2021/12/17 02:53:23;;;;;;;;;;;;;;;4.67;69.00;99529.81;4994325;28;19922;-71
2021/12/17 02:55:52;;;;;;;;;;;;;;;4.69;68.84;99537.53;5002408;28;19917;-71
2021/12/17 02:58:18;;;;;;;;;;;;;;;4.69;68.70;99529.56;5002338;28;19918;-71
2021/12/17 03:00:44;;;;;;;;;;;;;;;4.69;68.62;99532.22;5010674;28;19976;-70
2021/12/17 03:03:09;;;;;;;;;;;;;;;4.70;68.52;99533.84;5000070;28;19953;-70
2021/12/17 03:05:37;;;;;;;;;;;;;;;4.69;68.82;99524.28;4993438;28;20348;-70
2021/12/17 03:08:05;;;;;;;;;;;;;;;4.67;68.57;99524.50;4994006;28;19914;-70
2021/12/17 03:10:31;;;;;;;;;;;;;;;4.67;68.48;99521.06;5002617;28;19917;-70
2021/12/17 03:13:00;;;;;;;;;;;;;;;4.64;68.38;99527.63;5012078;28;19975;-73
2021/12/17 03:16:21;;;;;;;;;;;;;;;4.62;68.63;99525.16;5011339;28;19925;-73
2021/12/17 03:23:43;;;;;;;;;;;;;;;4.58;68.58;99517.91;4993519;28;20345;-72
2021/12/17 03:26:08;;;;;;;;;;;;;;;4.57;69.18;99532.19;4993528;28;19918;-72
2021/12/17 03:28:34;;;;;;;;;;;;;;;4.56;68.87;99526.06;4999531;28;19974;-72
2021/12/17 03:31:00;;;;;;;;;;;;;;;4.57;69.13;99527.69;5007352;28;19917;-72
2021/12/17 03:33:25;;;;;;;;;;;;;;;4.55;69.19;99521.81;5012427;28;20008;-71
2021/12/17 03:35:51;;;;;;;;;;;;;;;4.55;69.56;99531.59;4994914;28;20426;-71
2021/12/17 03:38:16;;;;;;;;;;;;;;;4.56;69.09;99536.66;4993798;28;19976;-70
2021/12/17 03:40:43;;;;;;;;;;;;;;;4.56;69.31;99541.16;5003587;28;19925;-71
2021/12/17 03:43:13;;;;;;;;;;;;;;;4.55;68.87;99534.25;5000735;28;19917;-71
2021/12/17 03:45:42;;;;;;;;;;;;;;;4.55;69.47;99536.91;4996596;28;19917;-70
2021/12/17 03:48:08;;;;;;;;;;;;;;;4.58;69.47;99541.75;4998168;28;20300;-70
2021/12/17 03:50:35;;;;;;;;;;;;;;;4.57;69.44;99538.28;5011270;28;19917;-70
2021/12/17 03:53:00;;;;;;;;;;;;;;;4.56;68.61;99533.22;4991546;28;20384;-70
2021/12/17 03:55:26;;;;;;;;;;;;;;;4.56;69.20;99528.72;4993272;28;19917;-70
2021/12/17 03:57:51;;;;;;;;;;;;;;;4.57;69.61;99527.69;4994021;28;19921;-69
2021/12/17 04:00:17;;;;;;;;;;;;;;;4.58;69.24;99531.16;4996556;28;19917;-70
2021/12/17 04:02:42;;;;;;;;;;;;;;;4.56;69.35;99526.06;4997090;28;19942;-69
2021/12/17 04:05:08;;;;;;;;;;;;;;;4.56;69.00;99528.72;4992910;28;19918;-70
2021/12/17 04:07:33;;;;;;;;;;;;;;;4.55;69.40;99524.44;5010349;28;19975;-70
2021/12/17 04:09:59;;;;;;;;;;;;;;;4.57;69.66;99527.69;5006644;28;20381;-71
2021/12/17 04:12:38;;;;;;;;;;;;;;;4.58;69.37;99521.38;4992698;28;20021;-70
2021/12/17 04:15:04;;;;;;;;;;;;;;;4.59;69.21;99523.00;5007194;28;19917;-71
2021/12/17 04:17:38;;;;;;;;;;;;;;;4.59;69.53;99523.00;4974860;28;19917;-71
2021/12/17 04:20:03;;;;;;;;;;;;;;;4.61;69.22;99526.22;4982733;28;19929;-70
2021/12/17 04:22:29;;;;;;;;;;;;;;;4.63;69.77;99523.34;5012201;28;19918;-70
2021/12/17 04:24:54;;;;;;;;;;;;;;;4.64;69.85;99524.97;5011942;28;19924;-70
2021/12/17 04:27:19;;;;;;;;;;;;;;;4.65;68.90;99516.78;5006398;28;20364;-70
2021/12/17 04:29:45;;;;;;;;;;;;;;;4.68;69.66;99528.78;5007852;28;19921;-70
2021/12/17 04:32:10;;;;;;;;;;;;;;;4.70;68.82;99523.25;5012111;28;19913;-69
2021/12/17 04:34:35;;;;;;;;;;;;;;;4.70;69.24;99523.25;4993997;28;19920;-72
2021/12/17 04:37:00;;;;;;;;;;;;;;;4.71;69.41;99507.13;4988316;28;19928;-71
2021/12/17 04:39:26;;;;;;;;;;;;;;;4.74;69.46;99519.13;4992482;28;20381;-69
2021/12/17 04:41:59;;;;;;;;;;;;;;;4.74;69.58;99517.28;4997011;28;20004;-70
2021/12/17 04:44:31;;;;;;;;;;;;;;;4.75;69.30;99523.41;5008537;28;19917;-74
2021/12/17 04:57:38;;;;;;;;;;;;;;;4.77;69.50;99523.97;4992155;28;20385;-72
2021/12/17 05:00:07;;;;;;;;;;;;;;;4.78;69.45;99525.59;4991346;28;20449;-71
2021/12/17 05:02:36;;;;;;;;;;;;;;;4.78;69.63;99517.63;4994163;28;19925;-71
2021/12/17 05:05:06;;;;;;;;;;;;;;;4.78;69.41;99523.72;5004777;28;19922;-72
2021/12/17 05:07:32;;;;;;;;;;;;;;;4.78;68.97;99514.97;5009510;28;20004;-73
2021/12/17 05:10:12;;;;;;;;;;;;;;;4.79;68.26;99514.75;4982202;28;20389;-73
2021/12/17 05:20:53;;;;;;;;;;;;;;;4.84;68.47;99516.72;5007575;28;19968;-75
2021/12/17 05:23:23;;;;;;;;;;;;;;;4.86;68.80;99522.63;4984621;28;19924;-74
2021/12/17 05:25:48;;;;;;;;;;;;;;;4.87;68.18;99518.09;4978585;28;20363;-73
2021/12/17 05:28:14;;;;;;;;;;;;;;;4.88;68.37;99527.69;4991586;28;19960;-72
2021/12/17 05:30:45;;;;;;;;;;;;;;;4.89;68.67;99527.44;4991810;28;19918;-71
2021/12/17 05:33:10;;;;;;;;;;;;;;;4.91;68.24;99522.75;4991800;28;20352;-72
2021/12/17 05:35:36;;;;;;;;;;;;;;;4.93;67.77;99535.75;4998520;28;20011;-72
2021/12/17 05:38:01;;;;;;;;;;;;;;;4.92;68.19;99532.31;5000781;28;19925;-72
2021/12/17 05:40:26;;;;;;;;;;;;;;;4.94;68.19;99524.94;4993173;28;19949;-72
2021/12/17 05:42:55;;;;;;;;;;;;;;;4.94;68.26;99519.66;4990643;28;19924;-72
2021/12/17 05:45:31;;;;;;;;;;;;;;;4.95;68.05;99517.78;4991254;28;19914;-72
2021/12/17 05:47:56;;;;;;;;;;;;;;;4.96;68.02;99522.06;4973606;28;20300;-72
2021/12/17 05:50:22;;;;;;;;;;;;;;;4.96;68.26;99525.50;4990959;28;19920;-72
2021/12/17 05:52:48;;;;;;;;;;;;;;;4.97;68.41;99521.81;4973574;28;20356;-72
2021/12/17 05:55:13;;;;;;;;;;;;;;;4.98;68.59;99533.25;4974065;28;19914;-72
2021/12/17 05:57:38;;;;;;;;;;;;;;;4.96;68.18;99530.81;4991462;28;20383;-72
2021/12/17 06:00:04;;;;;;;;;;;;;;;4.98;68.64;99533.25;4991007;28;19913;-72
2021/12/17 06:02:30;;;;;;;;;;;;;;;4.95;68.23;99536.34;4973628;28;19914;-72
2021/12/17 06:04:55;;;;;;;;;;;;;;;4.96;68.33;99530.81;4991016;28;19971;-72
2021/12/17 06:07:24;;;;;;;;;;;;;;;4.97;68.30;99513.09;4991617;28;19925;-72
2021/12/17 06:09:51;;;;;;;;;;;;;;;4.99;68.53;99512.84;4991173;28;19914;-72
2021/12/17 06:12:17;;;;;;;;;;;;;;;4.97;67.96;99508.56;4993347;28;19913;-72
2021/12/17 06:14:42;;;;;;;;;;;;;;;4.99;68.01;99504.91;4977440;28;19972;-72
2021/12/17 06:17:07;;;;;;;;;;;;;;;4.99;68.09;99494.28;4994669;28;20319;-72
2021/12/17 06:19:32;;;;;;;;;;;;;;;5.00;68.18;99485.31;4994645;28;19913;-73
2021/12/17 06:21:58;;;;;;;;;;;;;;;5.00;67.88;99485.31;4994623;28;19914;-72
2021/12/17 06:24:24;;;;;;;;;;;;;;;5.02;67.88;99485.91;4994750;28;19913;-71
2021/12/17 06:26:49;;;;;;;;;;;;;;;5.02;67.30;99477.94;4994493;28;19920;-73
2021/12/17 06:29:16;;;;;;;;;;;;;;;5.04;67.13;99484.63;4994596;28;19945;-73
2021/12/17 06:31:42;;;;;;;;;;;;;;;5.04;66.99;99479.31;4994600;28;19917;-71
2021/12/17 06:34:07;;;;;;;;;;;;;;;5.04;67.02;99481.97;4994282;28;19917;-73
2021/12/17 06:36:32;;;;;;;;;;;;;;;5.06;67.28;99481.75;4996983;28;19914;-71
2021/12/17 06:38:58;;;;;;;;;;;;;;;5.06;67.03;99485.19;5013953;28;19975;-71
2021/12/17 06:41:23;;;;;;;;;;;;;;;5.07;66.48;99488.66;5014049;28;20385;-72
2021/12/17 06:43:48;;;;;;;;;;;;;;;5.07;65.75;99488.66;5013852;28;19940;-72
2021/12/17 06:46:35;;;;;;;;;;;;;;;5.10;66.50;99482.88;4996356;28;19914;-72
2021/12/17 06:54:39;;;;;;;;;;;;;;;5.10;66.00;99501.44;5013682;28;19972;-72
2021/12/17 07:34:16;;;;;;;;;;;;;;;5.39;64.65;99498.94;5012985;28;19924;-72
2021/12/17 07:39:30;;;;;;;;;;;;;;;5.42;64.48;99495.81;5002415;28;19913;-72
2021/12/17 07:41:55;;;;;;;;;;;;;;;5.45;65.19;99503.31;4994994;28;19914;-72
2021/12/17 07:44:20;;;;;;;;;;;;;;;5.49;65.10;99501.03;5012491;28;19913;-72
2021/12/17 07:46:45;;;;;;;;;;;;;;;5.49;64.90;99485.91;5012455;28;19917;-72
2021/12/17 07:49:11;;;;;;;;;;;;;;;5.51;64.87;99494.44;4995066;28;19964;-72
2021/12/17 07:51:36;;;;;;;;;;;;;;;5.52;65.22;99496.06;5012969;28;19940;-73
2021/12/17 07:54:02;;;;;;;;;;;;;;;5.56;65.39;99489.25;5012170;28;19917;-72
2021/12/17 07:56:30;;;;;;;;;;;;;;;5.57;65.66;99493.50;4995059;28;19913;-73
2021/12/17 07:58:56;;;;;;;;;;;;;;;5.61;65.45;99488.56;5012434;28;20004;-72
2021/12/17 08:01:21;;;;;;;;;;;;;;;5.63;65.47;99486.50;5012914;28;19956;-72
2021/12/17 08:03:46;;;;;;;;;;;;;;;5.66;64.84;99488.66;4994896;28;19980;-72
2021/12/17 08:06:12;;;;;;;;;;;;;;;5.69;65.19;99479.44;4994682;28;19921;-72
2021/12/17 08:08:37;;;;;;;;;;;;;;;5.70;64.82;99484.53;5012396;28;19917;-72
2021/12/17 08:11:03;;;;;;;;;;;;;;;5.75;65.15;99483.81;4994449;28;19963;-72
2021/12/17 08:13:32;;;;;;;;;;;;;;;5.79;64.93;99477.00;5012131;28;19913;-73
2021/12/17 08:18:47;;;;;;;;;;;;;;;5.87;65.33;99460.72;5012296;28;20004;-73
2021/12/17 08:31:28;;;;;;;;;;;;;;;6.21;65.05;99442.28;5012101;28;19914;-72
2021/12/17 08:33:53;;;;;;;;;;;;;;;6.32;66.12;99445.91;5011428;28;19987;-72
2021/12/17 08:36:19;;;;;;;;;;;;;;;6.42;65.19;99434.69;5012126;28;20290;-72
2021/12/17 08:38:45;;;;;;;;;;;;;;;6.54;65.13;99431.97;5011975;28;19921;-72
2021/12/17 08:41:11;;;;;;;;;;;;;;;6.62;65.14;99422.81;4993846;28;20015;-72
2021/12/17 08:43:37;;;;;;;;;;;;;;;6.75;65.19;99430.47;5011915;28;20008;-73
2021/12/17 08:46:03;;;;;;;;;;;;;;;6.87;65.86;99427.72;4994117;28;19913;-73
2021/12/17 08:48:28;;;;;;;;;;;;;;;6.97;65.04;99425.22;4994127;28;19929;-73
2021/12/17 08:50:54;;;;;;;;;;;;;;;7.05;63.54;99416.84;5011508;28;19980;-72
2021/12/17 08:53:19;;;;;;;;;;;;;;;7.13;63.23;99420.94;4994157;28;19921;-72
2021/12/17 08:55:45;;;;;;;;;;;;;;;7.19;63.60;99429.81;5011501;28;19913;-73
2021/12/17 08:58:13;;;;;;;;;;;;;;;7.22;63.05;99431.97;5011548;28;20495;-73
2021/12/17 09:00:39;;;;;;;;;;;;;;;7.26;63.08;99425.09;4994048;28;19920;-73
2021/12/17 09:03:06;;;;;;;;;;;;;;;7.26;63.19;99421.66;5011308;28;19913;-72
2021/12/17 09:05:31;;;;;;;;;;;;;;;7.31;62.69;99417.22;5011537;28;19932;-73
2021/12/17 09:07:57;;;;;;;;;;;;;;;7.30;62.75;99422.75;4993880;28;20012;-74
2021/12/17 09:10:23;;;;;;;;;;;;;;;7.28;62.03;99412.38;4993905;28;20604;-71
2021/12/17 09:12:49;;;;;;;;;;;;;;;7.28;62.14;99409.72;5011662;28;19917;-72
2021/12/17 09:15:14;;;;;;;;;;;;;;;7.29;62.48;99406.00;5011471;28;20012;-74
2021/12/17 09:17:40;;;;;;;;;;;;;;;7.29;62.29;99403.34;5011547;28;19948;-72
2021/12/17 09:20:06;;;;;;;;;;;;;;;7.32;62.87;99396.72;4993732;28;20364;-74
2021/12/17 09:22:32;;;;;;;;;;;;;;;7.32;62.78;99394.88;5011493;28;19914;-72
2021/12/17 09:24:57;;;;;;;;;;;;;;;7.35;62.93;99391.72;5011249;28;19929;-72
2021/12/17 09:27:22;;;;;;;;;;;;;;;7.41;63.20;99381.94;4990599;28;19914;-73
2021/12/17 09:29:47;;;;;;;;;;;;;;;7.48;62.95;99387.06;4991903;28;19918;-71
2021/12/17 09:32:13;;;;;;;;;;;;;;;7.50;62.34;99382.31;4991286;28;20014;-71
2021/12/17 09:34:38;;;;;;;;;;;;;;;7.53;62.33;99368.50;4974286;28;19920;-73
2021/12/17 09:37:04;;;;;;;;;;;;;;;7.54;62.95;99370.13;4991529;28;19914;-73
2021/12/17 09:39:29;;;;;;;;;;;;;;;7.57;62.80;99363.50;4991750;28;20000;-73
2021/12/17 09:41:55;;;;;;;;;;;;;;;7.56;62.53;99360.03;4991547;28;20360;-71
2021/12/17 09:44:21;;;;;;;;;;;;;;;7.57;62.38;99361.66;4991713;28;19914;-73
2021/12/17 09:46:47;;;;;;;;;;;;;;;7.60;62.56;99347.84;4992511;28;20013;-73
2021/12/17 09:49:14;;;;;;;;;;;;;;;7.62;62.73;99344.94;4995172;28;19914;-73
2021/12/17 09:51:41;;;;;;;;;;;;;;;7.61;62.23;99343.34;4995773;28;19945;-73
2021/12/17 09:54:06;;;;;;;;;;;;;;;7.62;62.27;99344.94;4995210;28;19914;-73
2021/12/17 09:56:32;;;;;;;;;;;;;;;7.60;62.57;99344.38;4995312;28;19913;-73
2021/12/17 09:58:58;;;;;;;;;;;;;;;7.59;62.48;99337.44;4995079;28;19971;-73
2021/12/17 10:01:23;;;;;;;;;;;;;;;7.59;62.85;99338.25;4995242;28;19913;-74
2021/12/17 10:04:07;;;;;;;;;;;;;;;7.59;63.34;99343.59;4995250;28;20357;-73
2021/12/17 10:06:33;;;;;;;;;;;;;;;7.56;63.48;99327.31;4995086;28;20012;-73
2021/12/17 10:08:58;;;;;;;;;;;;;;;7.53;63.22;99324.09;4994887;28;20052;-73
2021/12/17 10:11:24;;;;;;;;;;;;;;;7.53;64.03;99324.09;4995042;28;20313;-73
2021/12/17 10:13:50;;;;;;;;;;;;;;;7.47;63.75;99314.44;4995002;28;19963;-73
2021/12/17 10:16:19;;;;;;;;;;;;;;;7.49;64.03;99316.84;4994763;28;20411;-73
2021/12/17 10:18:48;;;;;;;;;;;;;;;7.51;64.30;99317.41;4995215;28;19913;-73
2021/12/17 10:21:18;;;;;;;;;;;;;;;7.50;63.97;99311.25;4994371;28;20385;-73
2021/12/17 10:23:44;;;;;;;;;;;;;;;7.51;64.17;99310.22;4995098;28;20019;-73
2021/12/17 10:26:14;;;;;;;;;;;;;;;7.52;64.65;99306.50;4994368;28;20414;-73
2021/12/17 10:28:56;;;;;;;;;;;;;;;7.54;64.73;99300.91;4994432;28;19914;-73
2021/12/17 10:31:21;;;;;;;;;;;;;;;7.53;64.01;99297.47;4977263;28;20318;-73
2021/12/17 10:33:50;;;;;;;;;;;;;;;7.53;64.08;99296.66;4994387;28;19929;-73
2021/12/17 10:36:15;;;;;;;;;;;;;;;7.54;64.83;99290.28;4976923;28;19914;-73
2021/12/17 10:38:44;;;;;;;;;;;;;;;7.53;64.38;99294.00;4994282;28;19917;-73
2021/12/17 10:41:13;;;;;;;;;;;;;;;7.56;64.41;99295.38;4993907;28;20432;-73
2021/12/17 10:43:45;;;;;;;;;;;;;;;7.57;64.88;99286.31;4994462;28;19913;-73
2021/12/17 10:46:25;;;;;;;;;;;;;;;7.59;64.58;99281.56;4994003;28;19914;-73
2021/12/17 10:48:55;;;;;;;;;;;;;;;7.58;64.57;99279.94;4994485;28;19914;-73
2021/12/17 10:54:06;;;;;;;;;;;;;;;7.59;65.04;99274.38;4994083;28;19914;-73
2021/12/17 10:56:42;;;;;;;;;;;;;;;7.61;64.51;99277.56;4994219;28;20286;-73
2021/12/17 10:59:08;;;;;;;;;;;;;;;7.61;64.16;99282.09;4993816;28;19988;-73
2021/12/17 11:01:45;;;;;;;;;;;;;;;7.62;64.49;99273.88;4994135;28;19913;-73
2021/12/17 11:04:14;;;;;;;;;;;;;;;7.61;64.43;99274.13;4976752;28;20270;-73
2021/12/17 11:06:43;;;;;;;;;;;;;;;7.61;64.43;99271.47;4993925;28;19924;-73
2021/12/17 11:09:09;;;;;;;;;;;;;;;7.59;64.89;99271.72;4993704;28;19949;-73
2021/12/17 11:11:41;;;;;;;;;;;;;;;7.60;65.00;99254.69;4993952;28;19953;-73
2021/12/17 11:14:06;;;;;;;;;;;;;;;7.58;64.66;99253.31;4993619;28;19917;-73
2021/12/17 11:16:32;;;;;;;;;;;;;;;7.57;65.25;99255.19;4993804;28;19924;-73
2021/12/17 11:18:57;;;;;;;;;;;;;;;7.60;64.80;99246.69;4993788;28;19920;-74
2021/12/17 11:21:23;;;;;;;;;;;;;;;7.63;65.03;99248.03;4976242;28;19914;-73
2021/12/17 11:23:48;;;;;;;;;;;;;;;7.61;64.94;99242.97;4993580;28;19921;-72
2021/12/17 11:26:14;;;;;;;;;;;;;;;7.63;65.50;99246.19;4975534;28;20377;-72
2021/12/17 11:28:40;;;;;;;;;;;;;;;7.62;65.09;99233.94;4993163;28;19914;-71
2021/12/17 11:31:06;;;;;;;;;;;;;;;7.63;65.53;99229.41;4993303;28;20404;-71
2021/12/17 11:33:31;;;;;;;;;;;;;;;7.65;65.62;99235.28;4993246;28;19917;-72
2021/12/17 11:35:57;;;;;;;;;;;;;;;7.66;65.71;99212.94;4975722;28;19914;-72
2021/12/17 11:38:31;;;;;;;;;;;;;;;7.66;65.85;99212.94;4993122;28;19913;-72
2021/12/17 11:41:04;;;;;;;;;;;;;;;7.67;65.87;99209.22;4975905;28;19914;-72
2021/12/17 11:43:34;;;;;;;;;;;;;;;7.68;66.50;99208.19;4993345;28;19913;-72
2021/12/17 11:46:04;;;;;;;;;;;;;;;7.72;66.51;99200.50;4993308;28;19914;-72
2021/12/17 11:48:30;;;;;;;;;;;;;;;7.75;66.73;99189.31;4993112;28;20492;-72
2021/12/17 11:51:23;;;;;;;;;;;;;;;7.78;66.68;99191.50;4993091;28;19961;-72
2021/12/17 11:53:52;;;;;;;;;;;;;;;7.80;66.57;99189.38;4991608;28;20016;-73
2021/12/17 11:56:30;;;;;;;;;;;;;;;7.83;66.52;99187.00;4992631;28;19913;-72
2021/12/17 11:58:55;;;;;;;;;;;;;;;7.85;66.41;99192.09;4992837;28;20441;-72
2021/12/17 12:01:39;;;;;;;;;;;;;;;7.86;66.38;99185.72;4992490;28;20004;-72
2021/12/17 12:04:34;;;;;;;;;;;;;;;7.88;66.53;99188.13;4975105;28;20301;-73
2021/12/17 12:07:10;;;;;;;;;;;;;;;7.87;66.33;99191.81;4983729;28;19918;-72
2021/12/17 12:12:22;;;;;;;;;;;;;;;7.82;66.22;99177.44;4992531;28;19918;-72
2021/12/17 12:14:47;;;;;;;;;;;;;;;7.81;66.57;99181.16;4975243;28;19914;-72
2021/12/17 12:17:13;;;;;;;;;;;;;;;7.81;66.27;99175.81;4974760;28;19921;-71
2021/12/17 12:19:48;;;;;;;;;;;;;;;7.80;66.31;99170.72;4992310;28;19913;-72
2021/12/17 12:22:13;;;;;;;;;;;;;;;7.79;66.29;99172.59;4991940;28;19913;-73
2021/12/17 12:24:39;;;;;;;;;;;;;;;7.77;66.21;99164.06;4992184;28;20373;-73
2021/12/17 12:27:04;;;;;;;;;;;;;;;7.77;66.43;99163.25;4974600;28;20349;-72
2021/12/17 12:29:29;;;;;;;;;;;;;;;7.76;66.28;99159.00;4974851;28;19913;-74
2021/12/17 12:32:23;;;;;;;;;;;;;;;7.73;66.89;99162.97;4974854;28;19918;-74
2021/12/17 12:34:50;;;;;;;;;;;;;;;7.75;67.19;99162.72;4990406;28;20012;-72
2021/12/17 12:37:26;;;;;;;;;;;;;;;7.74;66.97;99159.25;4992182;28;19914;-72
2021/12/17 12:39:56;;;;;;;;;;;;;;;7.73;67.51;99156.84;4992271;28;19957;-72
2021/12/17 12:42:28;;;;;;;;;;;;;;;7.76;67.48;99156.31;4992000;28;19922;-72
2021/12/17 12:44:53;;;;;;;;;;;;;;;7.74;67.57;99153.94;4974826;28;19914;-72
2021/12/17 12:47:31;;;;;;;;;;;;;;;7.75;67.82;99154.72;4974430;28;19921;-72
2021/12/17 12:50:01;;;;;;;;;;;;;;;7.76;67.75;99151.00;4974635;28;19920;-72
2021/12/17 12:52:27;;;;;;;;;;;;;;;7.78;68.12;99148.91;4974549;28;19914;-72
2021/12/17 12:54:55;;;;;;;;;;;;;;;7.80;67.86;99141.44;4992234;28;19914;-72
2021/12/17 12:57:40;;;;;;;;;;;;;;;7.80;67.22;99141.44;4992012;28;19913;-72
2021/12/17 13:00:08;;;;;;;;;;;;;;;7.78;67.16;99141.69;4991653;28;20000;-72
2021/12/17 13:02:34;;;;;;;;;;;;;;;7.79;66.93;99140.66;4992093;28;20368;-72
2021/12/17 13:05:00;;;;;;;;;;;;;;;7.79;66.96;99148.63;4991859;28;19948;-72
2021/12/17 13:07:35;;;;;;;;;;;;;;;7.81;66.83;99143.06;4991527;28;19925;-72
2021/12/17 13:10:09;;;;;;;;;;;;;;;7.83;66.87;99148.94;4991940;28;19920;-72
2021/12/17 13:12:35;;;;;;;;;;;;;;;7.83;66.15;99136.41;4992032;28;19914;-72
2021/12/17 13:15:19;;;;;;;;;;;;;;;7.84;66.15;99138.03;4992082;28;20296;-72
2021/12/17 13:23:49;;;;;;;;;;;;;;;7.81;65.62;99133.22;4972675;28;19921;-72
2021/12/17 13:26:14;;;;;;;;;;;;;;;7.81;66.28;99133.22;4978182;28;19914;-72
2021/12/17 13:28:54;;;;;;;;;;;;;;;7.80;65.87;99130.78;4995972;28;19920;-73
2021/12/17 13:31:48;;;;;;;;;;;;;;;7.78;65.91;99131.06;4978045;28;20462;-72
2021/12/17 13:34:22;;;;;;;;;;;;;;;7.78;66.09;99128.38;4973213;28;20000;-72
2021/12/17 13:36:50;;;;;;;;;;;;;;;7.78;66.26;99122.28;4978203;28;19965;-72
2021/12/17 13:39:16;;;;;;;;;;;;;;;7.77;66.71;99129.44;4978182;28;20293;-73
2021/12/17 13:41:43;;;;;;;;;;;;;;;7.77;66.79;99128.66;4995432;28;19914;-72
2021/12/17 13:44:25;;;;;;;;;;;;;;;7.76;67.88;99124.38;4995233;28;19920;-72
2021/12/17 13:46:50;;;;;;;;;;;;;;;7.73;68.42;99123.03;4978010;28;19914;-72
2021/12/17 13:49:16;;;;;;;;;;;;;;;7.69;69.57;99116.63;4994859;28;19921;-72
2021/12/17 13:51:41;;;;;;;;;;;;;;;7.67;69.29;99116.84;4977947;28;20540;-72
2021/12/17 13:54:07;;;;;;;;;;;;;;;7.66;69.71;99117.91;4977679;28;19913;-72
2021/12/17 13:56:32;;;;;;;;;;;;;;;7.66;70.12;99117.13;4995182;28;19944;-72
2021/12/17 13:59:01;;;;;;;;;;;;;;;7.64;70.84;99116.56;4977860;28;20100;-72
2021/12/17 14:01:27;;;;;;;;;;;;;;;7.64;70.96;99116.56;4995309;28;19940;-72
2021/12/17 14:03:52;;;;;;;;;;;;;;;7.60;70.94;99108.28;4994856;28;20437;-72
2021/12/17 14:06:23;;;;;;;;;;;;;;;7.58;71.12;99107.75;4995135;28;19984;-72
2021/12/17 14:08:51;;;;;;;;;;;;;;;7.57;71.02;99108.81;4995055;28;20004;-72
2021/12/17 14:11:31;;;;;;;;;;;;;;;7.57;70.84;99108.81;4994742;28;19921;-72
2021/12/17 14:13:57;;;;;;;;;;;;;;;7.56;70.69;99106.41;4995086;28;19972;-72
2021/12/17 14:16:29;;;;;;;;;;;;;;;7.52;70.42;99106.13;4994786;28;19921;-72
2021/12/17 14:18:55;;;;;;;;;;;;;;;7.51;71.43;99105.28;4994921;28;20012;-72
2021/12/17 14:21:27;;;;;;;;;;;;;;;7.51;70.82;99107.16;4976917;28;19913;-72
2021/12/17 14:23:52;;;;;;;;;;;;;;;7.52;71.17;99108.78;4977351;28;19967;-71
2021/12/17 14:26:25;;;;;;;;;;;;;;;7.53;70.99;99105.03;4976889;28;19913;-74
2021/12/17 14:28:53;;;;;;;;;;;;;;;7.53;71.18;99102.38;4994423;28;19971;-74
2021/12/17 14:31:18;;;;;;;;;;;;;;;7.54;70.38;99101.31;4994118;28;19914;-74
2021/12/17 14:33:46;;;;;;;;;;;;;;;7.53;70.67;99099.72;4976370;28;20403;-74
2021/12/17 14:36:14;;;;;;;;;;;;;;;7.53;70.24;99105.03;4994059;28;20443;-71
2021/12/17 14:38:41;;;;;;;;;;;;;;;7.47;70.08;99106.88;4994958;28;19914;-72
2021/12/17 14:41:11;;;;;;;;;;;;;;;7.44;71.23;99109.25;4994519;28;19913;-72
2021/12/17 14:43:38;;;;;;;;;;;;;;;7.39;71.04;99098.56;4994398;28;19913;-72
2021/12/17 14:49:13;;;;;;;;;;;;;;;7.29;72.36;99101.94;4961071;28;20298;-73
2021/12/17 14:57:22;;;;;;;;;;;;;;;7.17;74.45;99116.16;4994158;28;19967;-72
2021/12/17 15:05:55;;;;;;;;;;;;;;;6.99;77.47;99108.56;4994106;28;19968;-72
2021/12/17 15:08:21;;;;;;;;;;;;;;;6.92;78.92;99106.09;4993948;28;19961;-73
2021/12/17 15:10:47;;;;;;;;;;;;;;;6.85;79.11;99114.25;4993937;28;19964;-72
2021/12/17 15:13:13;;;;;;;;;;;;;;;6.81;80.13;99115.00;4993712;28;19917;-72
2021/12/17 15:15:39;;;;;;;;;;;;;;;6.75;80.91;99110.69;4993804;28;19920;-73
2021/12/17 15:18:05;;;;;;;;;;;;;;;6.71;81.36;99108.53;4993878;28;19972;-72
2021/12/17 15:20:32;;;;;;;;;;;;;;;6.64;82.90;99109.75;4993616;28;19956;-72
2021/12/17 15:22:59;;;;;;;;;;;;;;;6.60;82.57;99109.44;4993484;28;19918;-72
2021/12/17 15:25:25;;;;;;;;;;;;;;;6.52;84.11;99105.38;4993743;28;19920;-72
2021/12/17 15:27:51;;;;;;;;;;;;;;;6.47;84.13;99115.97;4975999;28;19918;-71
2021/12/17 15:30:21;;;;;;;;;;;;;;;6.44;84.33;99105.81;4993301;28;19979;-72
2021/12/17 15:32:47;;;;;;;;;;;;;;;6.40;84.28;99105.50;5004219;28;19924;-72
2021/12/17 15:35:15;;;;;;;;;;;;;;;6.38;85.35;99101.50;5001341;28;19917;-73
2021/12/17 15:37:40;;;;;;;;;;;;;;;6.33;85.27;99096.91;5013114;28;19979;-71
2021/12/17 15:40:06;;;;;;;;;;;;;;;6.35;86.01;99113.41;5012965;28;20407;-73
2021/12/17 15:42:31;;;;;;;;;;;;;;;6.31;86.44;99112.31;5005692;28;19925;-76
2021/12/17 15:44:56;;;;;;;;;;;;;;;6.30;86.28;99109.88;4988816;28;20023;-73
2021/12/17 15:47:22;;;;;;;;;;;;;;;6.27;86.94;99115.69;4992752;28;20321;-73
2021/12/17 15:49:47;;;;;;;;;;;;;;;6.23;86.83;99115.38;4990687;28;19949;-74
2021/12/17 15:52:12;;;;;;;;;;;;;;;6.20;86.94;99106.06;4986610;28;19996;-74
2021/12/17 15:54:38;;;;;;;;;;;;;;;6.18;87.68;99112.66;4994374;28;20004;-74
2021/12/17 15:57:05;;;;;;;;;;;;;;;6.17;87.51;99108.41;4989049;28;19918;-74
2021/12/17 15:59:30;;;;;;;;;;;;;;;6.14;88.46;99108.88;4980360;28;20012;-74
2021/12/17 16:01:57;;;;;;;;;;;;;;;6.12;88.46;99111.78;4992930;28;20325;-74
2021/12/17 16:04:22;;;;;;;;;;;;;;;6.04;89.47;99110.34;4981557;28;20428;-73
2021/12/17 16:06:53;;;;;;;;;;;;;;;6.03;89.00;99114.06;5077277;27;2033626;-74
2021/12/17 16:11:00;;;;;;;;;;;;;;;6.01;89.10;99115.34;5148864;27;19919;-75
2021/12/17 16:23:08;;;;;;;;;;;;;;;6.06;89.75;99124.16;5150344;27;19984;-74
2021/12/17 16:25:34;;;;;;;;;;;;;;;6.06;89.93;99123.38;5131330;27;20382;-76
2021/12/17 16:27:59;;;;;;;;;;;;;;;6.06;90.30;99126.81;5117336;28;19920;-75